This is the latest recevied weather packets stored in our database for station/object EPGD. If no packets are shown the sender has not sent any weather packets the latest 10 day(s).
| Time | Temp. | Humidity | Pressure | Rain* | Wind** | Luminosity | Snow |
|---|---|---|---|---|---|---|---|
| 1778013304 | 6.67° C | 93% | 1010 hPa | - | - | - | - |
| 1778011504 | 6.67° C | 93% | 1010 hPa | - | - | - | - |
| 1778009704 | 6.67° C | 100% | 1010 hPa | - | - | - | - |
| 1778007904 | 6.67° C | 100% | 1010 hPa | - | - | - | - |
| 1778006104 | 6.67° C | 100% | 1010 hPa | - | - | - | - |
| 1778004303 | 6.67° C | 100% | 1010 hPa | - | - | - | - |
| 1778002504 | 7.78° C | 93% | 1010 hPa | - | - | - | - |
| 1778000704 | 6.67° C | 100% | 1010 hPa | - | - | - | - |
| 1777998903 | 7.78° C | 93% | 1010 hPa | - | - | - | - |
| 1777997104 | 7.78° C | 93% | 1010 hPa | - | - | - | - |
| 1777995304 | 8.89° C | 93% | 1010 hPa | - | - | - | - |
| 1777993504 | 8.89° C | 87% | 1010 hPa | - | - | - | - |
| 1777991704 | 8.89° C | 87% | 1010 hPa | - | - | - | - |
| 1777989903 | 8.89° C | 87% | 1010 hPa | - | - | - | - |
| 1777988103 | 10° C | 76% | 1011 hPa | - | - | - | - |
| 1777986304 | 10° C | 76% | 1011 hPa | - | - | - | - |
| 1777984503 | 10° C | 76% | 1011 hPa | - | - | - | - |
| 1777982704 | 10° C | 76% | 1011 hPa | - | - | - | - |
| 1777980904 | 11.67° C | 54% | 1010 hPa | - | - | - | - |
| 1777979104 | 12.78° C | 47% | 1010 hPa | - | - | - | - |
| 1777977304 | 13.89° C | 41% | 1010 hPa | - | - | - | - |
| 1777975504 | 15.56° C | 41% | 1010 hPa | - | - | - | - |
| 1777973704 | 16.67° C | 41% | 1010 hPa | - | - | - | - |
| 1777971904 | 15.56° C | 41% | 1010 hPa | - | - | - | - |
| 1777970104 | 15° C | 41% | 1011 hPa | - | - | - | - |
* Rain since midnight (hover to see other rain measurements)
** Current wind speed in m/s (hover to see current wind gust speed)